Atlanta, Georgia
Traffic Map
Current Weather Conditions
Atlanta, Georgia
Few Clouds
Few Clouds
50°
Feels Like: 50°
Wind Chill: 50° Ceiling: Unl
Heat Index: 50° Visibility: 10mi
Dew Point: 40° Wind: 5mph
Humidity: 68% Direction: 300° (WNW)
Pressure: 29.97in Gusts: 0mph
Raw Report DataKATL 310452Z 30004KT 10SM FEW250 10/04 A2997 RMK AO2 SLP147 T01000044 402000072
Traffic Incident Summary
Active as of:
Severity:
Category:
InformationThere was an issue retrieving the traffic information for this location. Please try a different location or try again shortly.
Advertisements
Track Severe Weather on mobile